Time;durP1;ratioP1;P1;durP2;ratioP2;P2;SDS_P1;SDS_P2;PMS_P1;PMS_P2;Temp;Humidity;BMP_temperature;BMP_pressure;BME280_temperature;BME280_humidity;BME280_pressure;Samples;Min_cycle;Max_cycle;Signal;HPM_P1;HPM_P2
2022/07/26 00:00:26;;;;;;;13.50;3.40;;;18.30;99.90;;;;;;3057074;19;20046;-70
2022/07/26 00:01:30;;;;;;;15.00;2.85;;;18.20;99.90;;;;;;3058311;19;19999;-70
2022/07/26 00:02:31;;;;;;;18.35;3.97;;;18.30;99.90;;;;;;3057499;19;20471;-70
2022/07/26 00:03:35;;;;;;;19.17;3.45;;;18.20;99.90;;;;;;3058166;19;20010;-70
2022/07/26 00:04:36;;;;;;;19.52;3.30;;;18.10;99.90;;;;;;3063153;19;20014;-70
2022/07/26 00:05:41;;;;;;;15.98;3.63;;;18.10;99.90;;;;;;3063030;19;20018;-70
2022/07/26 00:06:42;;;;;;;14.05;3.35;;;18.10;99.90;;;;;;3064789;19;20395;-71
2022/07/26 00:07:47;;;;;;;15.63;3.20;;;18.30;99.90;;;;;;3063895;19;20006;-69
2022/07/26 00:08:48;;;;;;;10.27;3.00;;;18.20;99.90;;;;;;3060514;19;20025;-70
2022/07/26 00:09:55;;;;;;;15.68;2.92;;;18.20;99.90;;;;;;3063417;19;20046;-70
2022/07/26 00:10:56;;;;;;;14.75;2.95;;;18.30;99.90;;;;;;3064129;19;20035;-70
2022/07/26 00:12:00;;;;;;;14.45;3.60;;;18.30;99.90;;;;;;3063889;19;20021;-70
2022/07/26 00:13:01;;;;;;;12.20;3.45;;;18.10;99.90;;;;;;3063904;19;20027;-69
2022/07/26 00:14:07;;;;;;;12.13;2.85;;;18.20;99.90;;;;;;3062738;19;20935;-70
2022/07/26 00:15:10;;;;;;;15.40;3.25;;;18.10;99.90;;;;;;3063999;19;20014;-70
2022/07/26 00:16:15;;;;;;;17.42;3.58;;;18.00;99.90;;;;;;3062255;19;20014;-71
2022/07/26 00:17:16;;;;;;;12.02;3.28;;;18.20;99.90;;;;;;3064541;19;20019;-70
2022/07/26 00:18:21;;;;;;;12.70;3.33;;;18.20;99.90;;;;;;3063381;19;20035;-69
2022/07/26 00:19:22;;;;;;;16.08;3.60;;;18.20;99.90;;;;;;3064458;19;20022;-70
2022/07/26 00:20:26;;;;;;;13.75;3.63;;;18.10;99.90;;;;;;3063617;19;20480;-70
2022/07/26 00:21:29;;;;;;;13.18;3.00;;;18.00;99.90;;;;;;3063704;19;20014;-69
2022/07/26 00:22:40;;;;;;;12.95;3.67;;;17.90;99.90;;;;;;3063137;19;19999;-70
2022/07/26 00:23:41;;;;;;;14.50;3.25;;;18.20;99.90;;;;;;3063471;19;20091;-70
2022/07/26 00:24:45;;;;;;;17.38;3.92;;;18.00;99.90;;;;;;3062422;19;20010;-70
2022/07/26 00:25:49;;;;;;;15.95;3.60;;;18.10;99.90;;;;;;3063546;19;20086;-70
2022/07/26 00:26:53;;;;;;;15.73;3.42;;;17.90;99.90;;;;;;3062930;19;20480;-70
2022/07/26 00:27:54;;;;;;;13.90;3.08;;;18.20;99.90;;;;;;3062291;19;20010;-70
2022/07/26 00:28:58;;;;;;;14.02;3.00;;;18.00;99.90;;;;;;3063703;19;20025;-70
2022/07/26 00:29:59;;;;;;;12.32;2.95;;;18.10;99.90;;;;;;3063206;19;20364;-70
2022/07/26 00:31:03;;;;;;;16.50;3.40;;;18.00;99.90;;;;;;3063653;19;20078;-70
2022/07/26 00:32:05;;;;;;;18.80;3.33;;;18.00;99.90;;;;;;3063600;19;20357;-69
2022/07/26 00:33:09;;;;;;;10.48;3.42;;;18.10;99.90;;;;;;3063591;19;20380;-70
2022/07/26 00:34:11;;;;;;;11.43;3.17;;;18.70;99.90;;;;;;3063979;19;20022;-70
2022/07/26 00:35:15;;;;;;;11.38;3.33;;;18.20;99.90;;;;;;3063554;19;20039;-69
2022/07/26 00:36:16;;;;;;;13.98;3.38;;;18.00;99.90;;;;;;3063670;19;20015;-70
2022/07/26 00:37:17;;;;;;;13.13;3.25;;;18.00;99.90;;;;;;3065242;19;20014;-70
2022/07/26 00:38:22;;;;;;;12.60;3.53;;;18.10;99.90;;;;;;3062483;19;20487;-70
2022/07/26 00:39:23;;;;;;;19.05;3.15;;;18.10;99.90;;;;;;3063451;19;20019;-69
2022/07/26 00:40:27;;;;;;;12.05;2.67;;;18.00;99.90;;;;;;3064422;19;20038;-69
2022/07/26 00:41:31;;;;;;;13.20;3.50;;;18.10;99.90;;;;;;3064163;19;20022;-70
2022/07/26 00:42:35;;;;;;;15.95;3.25;;;18.00;99.90;;;;;;3064717;19;20022;-69
2022/07/26 00:43:37;;;;;;;11.95;3.00;;;18.20;99.90;;;;;;3063173;19;20018;-70
2022/07/26 00:44:41;;;;;;;16.77;3.60;;;18.00;99.90;;;;;;3065135;19;20017;-70
2022/07/26 00:45:42;;;;;;;12.35;3.20;;;18.10;99.90;;;;;;3063380;19;20432;-70
2022/07/26 00:46:46;;;;;;;14.43;3.20;;;18.10;99.90;;;;;;3062766;19;20082;-70
2022/07/26 00:47:48;;;;;;;14.07;3.33;;;18.10;99.90;;;;;;3061994;19;20495;-70
2022/07/26 00:48:52;;;;;;;14.07;3.30;;;18.10;99.90;;;;;;3062671;19;20025;-70
2022/07/26 00:49:53;;;;;;;12.70;3.28;;;18.10;99.90;;;;;;3064961;19;20558;-69
2022/07/26 00:50:57;;;;;;;13.82;3.75;;;18.00;99.90;;;;;;3064356;19;20011;-70
2022/07/26 00:51:58;;;;;;;13.57;3.20;;;18.20;99.90;;;;;;3063374;19;20491;-72
2022/07/26 00:53:02;;;;;;;13.10;3.40;;;17.90;99.90;;;;;;3062313;19;20700;-70
2022/07/26 00:54:05;;;;;;;12.02;3.00;;;18.20;99.90;;;;;;3064308;19;20018;-70
2022/07/26 00:55:10;;;;;;;12.60;3.25;;;18.20;99.90;;;;;;3062322;19;20010;-70
2022/07/26 00:56:13;;;;;;;16.05;3.53;;;18.30;99.90;;;;;;3061936;19;20015;-70
2022/07/26 00:57:19;;;;;;;13.68;3.38;;;18.10;99.90;;;;;;3062852;19;20014;-70
2022/07/26 00:58:21;;;;;;;14.63;3.13;;;18.10;99.90;;;;;;3062610;19;20010;-70
2022/07/26 00:59:25;;;;;;;12.27;2.97;;;18.20;99.90;;;;;;3063152;19;20472;-70
2022/07/26 01:00:26;;;;;;;13.27;3.03;;;18.20;99.90;;;;;;3060639;19;20014;-69
2022/07/26 01:01:30;;;;;;;;;;;18.20;99.90;;;;;;3063380;19;20006;-71
2022/07/26 01:02:31;;;;;;;11.55;3.13;;;18.00;99.90;;;;;;3060486;19;23657;-70
2022/07/26 01:03:36;;;;;;;14.52;3.65;;;18.00;99.90;;;;;;3063338;19;20459;-69
2022/07/26 01:04:37;;;;;;;12.50;3.15;;;18.10;99.90;;;;;;3062944;19;20018;-70
2022/07/26 01:05:41;;;;;;;16.17;3.50;;;17.90;99.90;;;;;;3063019;19;20046;-72
2022/07/26 01:06:42;;;;;;;14.85;3.08;;;18.20;99.90;;;;;;3062033;19;20023;-70
2022/07/26 01:07:48;;;;;;;13.57;3.42;;;17.90;99.90;;;;;;3064425;19;20010;-70
2022/07/26 01:08:50;;;;;;;16.27;3.50;;;18.10;99.90;;;;;;3064381;19;20034;-70
2022/07/26 01:09:54;;;;;;;16.40;3.35;;;18.00;99.90;;;;;;3061593;19;20011;-70
2022/07/26 01:10:55;;;;;;;17.67;3.33;;;17.90;99.90;;;;;;3064522;19;20025;-71
2022/07/26 01:11:59;;;;;;;15.25;4.10;;;18.00;99.90;;;;;;3063454;19;20018;-70
2022/07/26 01:13:03;;;;;;;18.58;3.17;;;18.20;99.90;;;;;;3062592;19;20026;-70
2022/07/26 01:14:07;;;;;;;12.25;3.50;;;18.00;99.90;;;;;;3062458;19;20476;-70
2022/07/26 01:15:10;;;;;;;14.35;3.75;;;18.00;99.90;;;;;;3063079;19;20456;-70
2022/07/26 01:16:15;;;;;;;17.10;3.85;;;17.90;99.90;;;;;;3058948;19;20488;-69
2022/07/26 01:17:16;;;;;;;18.13;3.78;;;18.30;99.90;;;;;;3059152;19;20496;-70
2022/07/26 01:18:20;;;;;;;15.48;3.40;;;18.10;99.90;;;;;;3060654;19;20018;-70
2022/07/26 01:19:22;;;;;;;17.17;3.55;;;18.10;99.90;;;;;;3057619;19;20363;-69
2022/07/26 01:20:25;;;;;;;17.23;3.33;;;18.00;99.90;;;;;;3060693;19;20010;-70
2022/07/26 01:21:31;;;;;;;13.68;3.83;;;18.00;99.90;;;;;;3060094;19;20360;-70
2022/07/26 01:22:35;;;;;;;17.65;3.80;;;18.10;99.90;;;;;;3059668;19;20349;-70
2022/07/26 01:23:37;;;;;;;14.57;3.65;;;18.10;99.90;;;;;;3058329;19;20022;-70
2022/07/26 01:24:41;;;;;;;;;;;18.00;99.90;;;;;;3061528;19;20078;-69
2022/07/26 01:25:42;;;;;;;17.70;3.95;;;17.90;99.90;;;;;;3061797;19;19934;-70
2022/07/26 01:26:46;;;;;;;13.00;2.97;;;18.00;99.90;;;;;;3059020;19;20077;-70
2022/07/26 01:27:48;;;;;;;12.02;3.10;;;17.90;99.90;;;;;;3061241;19;20021;-70
2022/07/26 01:28:51;;;;;;;14.02;3.22;;;18.00;99.90;;;;;;3060617;19;20084;-70
2022/07/26 01:29:53;;;;;;;14.05;3.92;;;18.00;99.90;;;;;;3059191;19;20018;-69
2022/07/26 01:30:57;;;;;;;16.13;3.53;;;18.10;99.90;;;;;;3058058;19;20814;-69
2022/07/26 01:32:00;;;;;;;16.52;3.50;;;18.10;99.90;;;;;;3059891;19;20018;-69
2022/07/26 01:33:04;;;;;;;15.63;3.95;;;18.10;99.90;;;;;;3060179;19;20085;-70
2022/07/26 01:34:05;;;;;;;19.60;3.83;;;18.10;99.90;;;;;;3059390;19;20025;-70
2022/07/26 01:35:10;;;;;;;17.42;3.75;;;17.90;99.90;;;;;;3059792;19;20074;-70
2022/07/26 01:36:11;;;;;;;20.52;3.80;;;18.00;99.90;;;;;;3059942;19;20015;-70
2022/07/26 01:37:18;;;;;;;18.27;3.75;;;18.20;99.90;;;;;;3060080;19;20500;-70
2022/07/26 01:38:19;;;;;;;16.65;3.72;;;18.10;99.90;;;;;;3059406;19;20109;-70
2022/07/26 01:39:23;;;;;;;17.42;3.70;;;18.20;99.90;;;;;;3059226;19;20539;-69
2022/07/26 01:40:24;;;;;;;14.10;3.50;;;18.10;99.90;;;;;;3059850;19;20010;-69
2022/07/26 01:41:28;;;;;;;16.85;4.22;;;18.10;99.90;;;;;;3059451;19;20018;-70
2022/07/26 01:42:29;;;;;;;18.52;3.70;;;18.10;99.90;;;;;;3059610;19;20467;-70
2022/07/26 01:43:33;;;;;;;14.50;3.80;;;18.20;99.90;;;;;;3059254;19;20074;-69
2022/07/26 01:44:35;;;;;;;15.80;4.55;;;18.10;99.90;;;;;;3058855;19;20010;-69
2022/07/26 01:45:39;;;;;;;17.98;3.90;;;18.20;99.90;;;;;;3060700;19;20479;-70
2022/07/26 01:46:40;;;;;;;16.55;4.13;;;18.20;99.90;;;;;;3060890;19;20106;-70
2022/07/26 01:47:48;;;;;;;18.52;3.92;;;18.10;99.90;;;;;;3058768;19;20014;-70
2022/07/26 01:48:53;;;;;;;18.38;3.45;;;18.10;99.90;;;;;;3059865;19;20094;-70
2022/07/26 01:49:54;;;;;;;18.20;3.58;;;18.10;99.90;;;;;;3061038;19;20010;-69
2022/07/26 01:50:59;;;;;;;16.35;3.53;;;18.20;99.90;;;;;;3060300;19;20018;-70
2022/07/26 01:52:00;;;;;;;16.40;3.72;;;18.10;99.90;;;;;;3060278;19;20022;-70
2022/07/26 01:53:06;;;;;;;16.30;3.67;;;18.30;99.90;;;;;;3059021;19;20019;-69
2022/07/26 01:54:08;;;;;;;18.63;3.97;;;18.20;99.90;;;;;;3059575;19;20468;-70
2022/07/26 01:55:12;;;;;;;17.38;3.13;;;18.20;99.90;;;;;;3060400;19;20015;-70
2022/07/26 01:56:13;;;;;;;13.98;3.72;;;18.20;99.90;;;;;;3059130;19;20015;-70
2022/07/26 01:57:17;;;;;;;16.92;3.47;;;18.00;99.90;;;;;;3057008;19;20020;-69
2022/07/26 01:58:19;;;;;;;13.23;3.90;;;18.20;99.90;;;;;;3058594;19;20024;-70
2022/07/26 01:59:22;;;;;;;14.65;3.63;;;18.10;99.90;;;;;;3059289;19;20018;-70
2022/07/26 02:00:24;;;;;;;16.33;3.63;;;17.70;99.90;;;;;;3059368;19;20038;-70
2022/07/26 02:01:28;;;;;;;12.25;3.10;;;18.00;99.90;;;;;;3059646;19;20031;-70
2022/07/26 02:02:29;;;;;;;14.70;3.10;;;18.10;99.90;;;;;;3061345;19;20392;-69
2022/07/26 02:03:33;;;;;;;13.50;3.63;;;18.00;99.90;;;;;;3058608;19;20018;-70
2022/07/26 02:05:53;;;;;;;15.82;3.58;;;17.90;99.90;;;;;;3055912;19;20011;-70
2022/07/26 02:06:55;;;;;;;13.27;3.05;;;18.10;99.90;;;;;;3062344;19;20027;-69
2022/07/26 02:07:59;;;;;;;11.95;3.42;;;18.10;99.90;;;;;;3061098;19;20006;-69
2022/07/26 02:09:03;;;;;;;10.52;3.60;;;17.90;99.90;;;;;;3059458;19;20423;-69
2022/07/26 02:10:09;;;;;;;13.73;3.88;;;17.90;99.90;;;;;;3059327;19;20018;-70
2022/07/26 02:11:10;;;;;;;10.70;3.10;;;18.00;99.90;;;;;;3059391;19;20860;-70
2022/07/26 02:12:14;;;;;;;11.10;3.13;;;18.00;99.90;;;;;;3060260;19;20499;-70
2022/07/26 02:13:15;;;;;;;15.68;3.90;;;17.90;99.90;;;;;;3059100;19;20475;-70
2022/07/26 02:14:19;;;;;;;;;;;17.90;99.90;;;;;;3060119;19;20536;-70
2022/07/26 02:15:20;;;;;;;13.05;3.25;;;18.00;99.90;;;;;;3058222;19;19919;-70
2022/07/26 02:16:25;;;;;;;14.35;3.35;;;17.90;99.90;;;;;;3058520;19;20019;-70
2022/07/26 02:17:26;;;;;;;14.48;3.20;;;17.80;99.90;;;;;;3059382;19;20010;-70
2022/07/26 02:18:31;;;;;;;9.55;2.97;;;17.90;99.90;;;;;;3059783;19;20062;-70
2022/07/26 02:19:32;;;;;;;16.08;3.70;;;17.80;99.90;;;;;;3058908;19;20021;-70
2022/07/26 02:20:37;;;;;;;16.63;3.28;;;18.10;99.90;;;;;;3059587;19;20492;-69
2022/07/26 02:21:38;;;;;;;12.10;3.65;;;18.00;99.90;;;;;;3059513;19;20028;-70
2022/07/26 02:22:42;;;;;;;9.93;3.08;;;17.80;99.90;;;;;;3058411;19;20006;-70
2022/07/26 02:23:43;;;;;;;10.15;2.92;;;18.00;99.90;;;;;;3059656;19;20026;-70
2022/07/26 02:24:51;;;;;;;11.10;3.00;;;18.00;99.90;;;;;;3059071;19;20012;-70
2022/07/26 02:25:53;;;;;;;8.70;2.97;;;17.80;99.90;;;;;;3059013;19;20574;-70
2022/07/26 02:26:58;;;;;;;11.00;3.20;;;17.90;99.90;;;;;;3057753;19;20031;-70
2022/07/26 02:28:00;;;;;;;10.93;3.20;;;18.10;99.90;;;;;;3057369;19;20025;-69
2022/07/26 02:29:04;;;;;;;9.20;3.15;;;17.90;99.90;;;;;;3058826;19;20015;-71
2022/07/26 02:30:07;;;;;;;14.50;3.00;;;17.90;99.90;;;;;;3058938;19;20381;-69
2022/07/26 02:31:10;;;;;;;9.55;2.95;;;18.00;99.90;;;;;;3059480;19;20499;-69
2022/07/26 02:32:12;;;;;;;11.13;3.35;;;17.90;99.90;;;;;;3058721;19;20352;-70
2022/07/26 02:33:17;;;;;;;8.57;2.97;;;17.90;99.90;;;;;;3057138;19;20366;-70
2022/07/26 02:34:18;;;;;;;13.30;3.22;;;17.90;99.90;;;;;;3058923;19;20018;-70
2022/07/26 02:35:22;;;;;;;11.98;3.58;;;18.00;99.90;;;;;;3058889;19;20003;-70
2022/07/26 02:36:24;;;;;;;13.05;3.13;;;17.80;99.90;;;;;;3056573;19;20340;-70
2022/07/26 02:37:27;;;;;;;11.02;3.78;;;17.80;99.90;;;;;;3059801;19;20031;-70
2022/07/26 02:38:31;;;;;;;12.48;3.63;;;17.90;99.90;;;;;;3059765;19;20015;-69
2022/07/26 02:39:32;;;;;;;14.38;3.63;;;18.00;99.90;;;;;;3060877;19;20014;-70
2022/07/26 02:40:40;;;;;;;12.90;3.60;;;18.40;99.90;;;;;;3057612;19;20019;-70
2022/07/26 02:41:41;;;;;;;8.15;2.88;;;17.80;99.90;;;;;;3059343;19;20019;-70
2022/07/26 02:42:45;;;;;;;14.32;3.35;;;17.80;99.90;;;;;;3057837;19;20044;-70
2022/07/26 02:43:46;;;;;;;13.45;3.50;;;17.90;99.90;;;;;;3060086;19;20019;-70
2022/07/26 02:44:50;;;;;;;11.18;3.08;;;17.70;99.90;;;;;;3059973;19;20010;-69
2022/07/26 02:45:51;;;;;;;9.57;3.08;;;17.90;99.90;;;;;;3058276;19;20015;-69
2022/07/26 02:46:55;;;;;;;10.45;3.30;;;17.80;99.90;;;;;;3059575;19;20018;-70
2022/07/26 02:47:57;;;;;;;9.57;2.72;;;17.80;99.90;;;;;;3058873;19;20011;-70
2022/07/26 02:49:01;;;;;;;12.82;3.00;;;17.90;99.90;;;;;;3058193;19;20392;-71
2022/07/26 02:50:02;;;;;;;9.60;3.05;;;17.90;99.90;;;;;;3058934;19;20042;-70
2022/07/26 02:51:07;;;;;;;8.75;3.30;;;17.90;99.90;;;;;;3059276;19;20085;-69
2022/07/26 02:52:08;;;;;;;13.48;3.15;;;17.90;99.90;;;;;;3059144;19;20007;-70
2022/07/26 02:53:12;;;;;;;11.77;3.20;;;17.80;99.90;;;;;;3059003;19;20014;-70
2022/07/26 02:54:13;;;;;;;10.15;2.83;;;17.90;99.90;;;;;;3058018;19;20374;-70
2022/07/26 02:55:19;;;;;;;11.60;3.20;;;17.90;99.90;;;;;;3057387;19;20015;-70
2022/07/26 02:56:26;;;;;;;9.45;3.05;;;17.80;99.90;;;;;;3059109;19;20003;-70
2022/07/26 02:57:27;;;;;;;10.55;3.47;;;17.80;99.90;;;;;;3060607;19;20017;-70
2022/07/26 02:58:31;;;;;;;8.65;3.08;;;18.00;99.90;;;;;;3058373;19;20025;-70
2022/07/26 02:59:32;;;;;;;10.32;3.30;;;17.80;99.90;;;;;;3056912;19;20132;-70
2022/07/26 03:00:36;;;;;;;9.95;3.10;;;17.90;99.90;;;;;;3058304;19;20034;-69
2022/07/26 03:01:38;;;;;;;9.27;2.72;;;17.90;99.90;;;;;;3059297;19;20396;-70
2022/07/26 03:02:42;;;;;;;;;;;17.80;99.90;;;;;;3058707;19;20078;-72
2022/07/26 03:03:43;;;;;;;8.30;2.90;;;17.80;99.90;;;;;;3058658;19;19915;-70
2022/07/26 03:04:47;;;;;;;8.95;2.80;;;17.90;99.90;;;;;;3059139;19;20014;-70
2022/07/26 03:05:48;;;;;;;8.45;3.08;;;17.90;99.90;;;;;;3059033;19;20079;-69
2022/07/26 03:06:52;;;;;;;9.25;3.20;;;17.80;99.90;;;;;;3058038;19;20307;-70
2022/07/26 03:07:53;;;;;;;10.93;3.15;;;17.70;99.90;;;;;;3059060;19;20018;-70
2022/07/26 03:08:57;;;;;;;8.35;2.95;;;17.80;99.90;;;;;;3058926;19;20018;-71
2022/07/26 03:09:58;;;;;;;11.38;3.50;;;17.90;99.90;;;;;;3058376;19;20042;-70
2022/07/26 03:11:02;;;;;;;12.85;3.67;;;17.90;99.90;;;;;;3059095;19;20014;-70
2022/07/26 03:12:07;;;;;;;16.30;4.07;;;17.70;99.90;;;;;;3058744;19;20471;-69
2022/07/26 03:13:10;;;;;;;19.10;4.72;;;17.90;99.90;;;;;;3057543;19;20377;-69
2022/07/26 03:14:12;;;;;;;12.18;3.42;;;17.90;99.90;;;;;;3055477;19;20027;-68
2022/07/26 03:15:16;;;;;;;7.50;2.83;;;17.80;99.90;;;;;;3059179;19;20046;-68
2022/07/26 03:16:17;;;;;;;7.00;2.35;;;17.60;99.90;;;;;;3056674;19;20022;-68
2022/07/26 03:17:21;;;;;;;9.98;2.78;;;17.60;99.90;;;;;;3059161;19;20003;-68
2022/07/26 03:18:23;;;;;;;8.02;2.72;;;17.40;99.90;;;;;;3058439;19;20011;-68
2022/07/26 03:19:27;;;;;;;8.32;2.40;;;17.60;99.90;;;;;;3058635;19;20014;-68
2022/07/26 03:20:28;;;;;;;5.60;2.25;;;17.10;99.90;;;;;;3058403;19;20019;-69
2022/07/26 03:21:32;;;;;;;8.23;2.30;;;17.30;99.90;;;;;;3058215;19;20098;-69
2022/07/26 03:22:33;;;;;;;7.53;2.38;;;17.40;99.90;;;;;;3058057;19;20014;-69
2022/07/26 03:23:37;;;;;;;8.63;2.83;;;17.30;99.90;;;;;;3059624;19;20011;-69
2022/07/26 03:24:38;;;;;;;7.97;2.38;;;17.40;99.90;;;;;;3054681;19;20018;-69
2022/07/26 03:25:42;;;;;;;6.35;2.38;;;17.30;99.90;;;;;;3060352;19;20018;-69
2022/07/26 03:26:44;;;;;;;8.15;2.33;;;17.50;99.90;;;;;;3057757;19;20014;-69
2022/07/26 03:27:50;;;;;;;6.22;2.65;;;17.30;99.90;;;;;;3058911;19;20006;-70
2022/07/26 03:28:51;;;;;;;9.02;2.40;;;17.20;99.90;;;;;;3057114;19;20341;-69
2022/07/26 03:29:55;;;;;;;6.78;2.30;;;17.30;99.90;;;;;;3058772;19;20074;-68
2022/07/26 03:30:57;;;;;;;5.05;2.38;;;17.20;99.90;;;;;;3058518;19;20017;-69
2022/07/26 03:32:01;;;;;;;11.95;2.75;;;17.30;99.90;;;;;;3057874;19;20017;-69
2022/07/26 03:33:02;;;;;;;6.38;2.42;;;17.20;99.90;;;;;;3058070;19;20010;-69
2022/07/26 03:34:06;;;;;;;8.95;2.90;;;17.30;99.90;;;;;;3060534;19;20376;-69
2022/07/26 03:35:11;;;;;;;11.23;3.30;;;17.00;99.90;;;;;;3058465;19;20479;-69
2022/07/26 03:36:14;;;;;;;8.48;2.70;;;17.20;99.90;;;;;;3057771;19;20019;-68
2022/07/26 03:37:16;;;;;;;6.18;2.63;;;17.20;99.90;;;;;;3058491;19;20014;-70
2022/07/26 03:38:20;;;;;;;6.20;2.97;;;17.20;99.90;;;;;;3057763;19;20014;-69
2022/07/26 03:39:21;;;;;;;8.90;3.33;;;17.10;99.90;;;;;;3057230;19;20023;-69
2022/07/26 03:40:25;;;;;;;8.25;2.83;;;17.20;99.90;;;;;;3059626;19;20074;-70
2022/07/26 03:41:26;;;;;;;10.07;2.92;;;17.10;99.90;;;;;;3058725;19;20074;-69
2022/07/26 03:42:30;;;;;;;8.98;3.35;;;17.10;99.90;;;;;;3059059;19;20018;-69
2022/07/26 03:43:34;;;;;;;12.27;2.92;;;17.10;99.90;;;;;;3057238;19;20014;-69
2022/07/26 03:44:38;;;;;;;8.88;2.83;;;17.20;99.90;;;;;;3057395;19;20029;-69
2022/07/26 03:45:41;;;;;;;9.40;3.15;;;17.20;99.90;;;;;;3058151;19;20356;-68
2022/07/26 03:46:45;;;;;;;7.10;2.92;;;17.00;99.90;;;;;;3057516;19;20005;-69
2022/07/26 03:47:49;;;;;;;10.15;2.78;;;17.80;99.90;;;;;;3059162;19;20015;-68
2022/07/26 03:48:50;;;;;;;9.38;3.08;;;17.00;99.90;;;;;;3058371;19;20337;-69
2022/07/26 03:49:54;;;;;;;11.27;3.38;;;17.10;99.90;;;;;;3058347;19;20020;-69
2022/07/26 03:50:55;;;;;;;8.65;2.88;;;17.10;99.90;;;;;;3057848;19;20035;-68
2022/07/26 03:51:59;;;;;;;5.72;2.60;;;17.10;99.90;;;;;;3056937;19;20018;-69
2022/07/26 03:53:00;;;;;;;11.85;3.10;;;17.10;99.90;;;;;;3057718;19;20364;-68
2022/07/26 03:54:04;;;;;;;6.72;2.83;;;17.30;99.90;;;;;;3057332;19;20019;-68
2022/07/26 03:56:30;;;;;;;8.07;2.60;;;17.00;99.90;;;;;;3058060;19;20045;-69
2022/07/26 03:57:34;;;;;;;7.35;2.80;;;17.10;99.90;;;;;;3059559;19;20010;-68
2022/07/26 03:58:38;;;;;;;12.30;2.72;;;17.00;99.90;;;;;;3058709;19;20018;-69
2022/07/26 03:59:42;;;;;;;7.82;2.47;;;16.90;99.90;;;;;;3057759;19;20022;-68
2022/07/26 04:00:43;;;;;;;8.10;2.15;;;17.10;99.90;;;;;;3058598;19;20377;-69
2022/07/26 04:01:49;;;;;;;9.02;2.83;;;17.00;99.90;;;;;;3058735;19;20018;-69
2022/07/26 04:02:50;;;;;;;11.95;2.58;;;17.00;99.90;;;;;;3058272;19;20038;-69
2022/07/26 04:03:54;;;;;;;6.15;2.08;;;16.90;99.90;;;;;;3056832;19;20054;-70
2022/07/26 04:04:55;;;;;;;8.23;2.17;;;17.00;99.90;;;;;;3055692;19;20018;-69
2022/07/26 04:06:03;;;;;;;7.47;2.53;;;17.10;99.90;;;;;;3058002;19;20007;-70
2022/07/26 04:07:04;;;;;;;8.93;2.05;;;17.00;99.90;;;;;;3058362;19;20021;-69
2022/07/26 04:08:08;;;;;;;8.10;2.10;;;17.00;99.90;;;;;;3058674;19;20046;-69
2022/07/26 04:09:09;;;;;;;7.90;2.13;;;17.10;99.90;;;;;;3057976;19;20555;-69
2022/07/26 04:10:15;;;;;;;7.45;2.10;;;17.00;99.90;;;;;;3057665;19;20019;-69
2022/07/26 04:11:18;;;;;;;9.07;2.33;;;17.10;99.90;;;;;;3057584;19;20530;-69
2022/07/26 04:12:22;;;;;;;5.95;2.28;;;17.30;99.90;;;;;;3057754;19;20044;-69
2022/07/26 04:13:23;;;;;;;8.43;2.10;;;17.10;99.90;;;;;;3058329;19;20030;-69
2022/07/26 04:14:30;;;;;;;7.95;1.95;;;17.10;99.90;;;;;;3058815;19;20015;-70
2022/07/26 04:15:31;;;;;;;8.07;2.00;;;17.10;99.90;;;;;;3056703;19;20026;-69
2022/07/26 04:16:35;;;;;;;8.40;2.30;;;17.00;99.90;;;;;;3057849;19;20483;-69
2022/07/26 04:17:38;;;;;;;8.25;1.92;;;17.10;99.90;;;;;;3057606;19;20038;-69
2022/07/26 04:18:42;;;;;;;7.50;1.70;;;16.80;99.90;;;;;;3056885;19;20014;-69
2022/07/26 04:19:43;;;;;;;8.35;2.30;;;17.20;99.90;;;;;;3057613;19;20022;-68
2022/07/26 04:20:47;;;;;;;7.15;1.60;;;17.10;99.90;;;;;;3053283;19;20538;-69
2022/07/26 04:21:51;;;;;;;6.22;1.73;;;17.00;99.90;;;;;;3058221;19;20007;-69
2022/07/26 04:22:52;;;;;;;8.68;1.70;;;17.00;99.90;;;;;;3057347;19;20018;-68
2022/07/26 04:23:56;;;;;;;6.53;1.55;;;17.10;99.90;;;;;;3058986;19;20015;-69
2022/07/26 04:24:57;;;;;;;10.50;1.83;;;17.10;99.90;;;;;;3055483;19;20039;-68
2022/07/26 04:26:01;;;;;;;7.60;2.30;;;17.20;99.90;;;;;;3057032;19;20039;-69
2022/07/26 04:27:03;;;;;;;4.80;1.50;;;17.00;99.90;;;;;;3057981;19;20010;-68
2022/07/26 04:28:07;;;;;;;6.22;1.60;;;17.00;99.90;;;;;;3058754;19;20031;-68
2022/07/26 04:29:08;;;;;;;9.30;1.63;;;17.10;99.90;;;;;;3057894;19;20038;-68
2022/07/26 04:30:15;;;;;;;9.93;4.13;;;16.80;99.90;;;;;;3058005;19;20014;-68
2022/07/26 04:31:17;;;;;;;5.47;1.50;;;17.00;99.90;;;;;;3056613;19;20021;-69
2022/07/26 04:32:20;;;;;;;9.88;2.03;;;16.90;99.90;;;;;;3058352;19;20029;-68
2022/07/26 04:33:22;;;;;;;11.88;2.00;;;17.00;99.90;;;;;;3057248;19;20007;-69
2022/07/26 04:34:26;;;;;;;6.07;1.40;;;17.90;99.90;;;;;;3058002;19;20018;-69
2022/07/26 04:35:27;;;;;;;5.15;1.15;;;16.80;99.90;;;;;;3058113;19;20011;-68
2022/07/26 04:36:31;;;;;;;5.07;1.52;;;16.80;99.90;;;;;;3057283;19;20035;-68
2022/07/26 04:37:38;;;;;;;6.68;1.48;;;16.90;99.90;;;;;;3057059;19;20042;-69
2022/07/26 04:38:42;;;;;;;7.03;1.67;;;16.70;99.90;;;;;;3057235;19;20014;-68
2022/07/26 04:39:43;;;;;;;5.28;1.35;;;17.00;99.90;;;;;;3056210;19;20010;-70
2022/07/26 04:40:48;;;;;;;4.32;1.40;;;16.90;99.90;;;;;;3057637;19;20049;-69
2022/07/26 04:41:49;;;;;;;5.68;1.40;;;16.90;99.90;;;;;;3057070;19;20018;-68
2022/07/26 04:42:53;;;;;;;8.23;1.58;;;17.10;99.90;;;;;;3057689;19;20390;-69
2022/07/26 04:43:55;;;;;;;5.22;1.20;;;16.90;99.90;;;;;;3057917;19;20015;-69
2022/07/26 04:44:58;;;;;;;7.38;1.58;;;16.90;99.90;;;;;;3058229;19;20010;-69
2022/07/26 04:46:05;;;;;;;5.70;1.25;;;16.80;99.90;;;;;;3058259;19;20022;-69
2022/07/26 04:47:07;;;;;;;5.82;1.40;;;16.90;99.90;;;;;;3057733;19;20073;-69
2022/07/26 04:48:11;;;;;;;4.80;1.20;;;16.70;99.90;;;;;;3058012;19;20420;-68
2022/07/26 04:49:12;;;;;;;4.97;1.45;;;16.90;99.90;;;;;;3057513;19;20035;-68
2022/07/26 04:50:16;;;;;;;5.00;1.42;;;17.00;99.90;;;;;;3057485;19;20475;-68
2022/07/26 04:51:20;;;;;;;7.47;1.60;;;16.90;99.90;;;;;;3058841;19;20010;-69
2022/07/26 04:52:21;;;;;;;5.03;1.27;;;16.80;99.90;;;;;;3062390;19;20014;-69
2022/07/26 04:53:25;;;;;;;5.50;1.40;;;16.90;99.90;;;;;;3061225;19;20377;-69
2022/07/26 04:54:27;;;;;;;4.65;1.60;;;17.00;99.90;;;;;;3059911;19;20046;-69
2022/07/26 04:55:31;;;;;;;4.53;1.58;;;16.90;99.90;;;;;;3058464;19;20479;-69
2022/07/26 04:56:32;;;;;;;5.97;1.30;;;17.00;99.90;;;;;;3060940;19;20006;-70
2022/07/26 04:57:37;;;;;;;5.88;1.40;;;16.90;99.90;;;;;;3061470;19;20027;-69
2022/07/26 04:58:38;;;;;;;6.10;1.48;;;17.10;99.90;;;;;;3058735;19;20002;-68
2022/07/26 04:59:42;;;;;;;5.95;1.30;;;16.90;99.90;;;;;;3060165;19;20015;-68
2022/07/26 05:00:43;;;;;;;7.30;1.40;;;16.90;99.90;;;;;;3059530;19;20029;-68
2022/07/26 05:01:50;;;;;;;8.05;1.42;;;17.00;99.90;;;;;;3061422;19;20010;-69
2022/07/26 05:02:52;;;;;;;6.30;1.30;;;16.80;99.90;;;;;;3058849;19;20046;-68
2022/07/26 05:03:56;;;;;;;7.30;1.40;;;17.00;99.90;;;;;;3059863;19;20018;-69
2022/07/26 05:04:58;;;;;;;6.57;1.20;;;17.20;99.90;;;;;;3059918;19;20078;-68
2022/07/26 05:06:02;;;;;;;7.25;1.52;;;17.20;99.90;;;;;;3060065;19;20006;-68
2022/07/26 05:07:03;;;;;;;4.35;1.15;;;17.20;99.90;;;;;;3057012;19;20027;-68
2022/07/26 05:08:07;;;;;;;2.95;1.20;;;17.10;99.90;;;;;;3060753;19;20062;-68
2022/07/26 05:09:09;;;;;;;7.72;1.30;;;17.00;99.90;;;;;;3060754;19;20069;-69
2022/07/26 05:10:14;;;;;;;5.78;1.20;;;17.10;99.90;;;;;;3059740;19;20010;-68
2022/07/26 05:11:15;;;;;;;5.57;1.20;;;17.10;99.90;;;;;;3060190;19;20022;-69
2022/07/26 05:12:19;;;;;;;5.30;1.42;;;17.10;99.90;;;;;;3060641;19;20009;-69
2022/07/26 05:13:21;;;;;;;4.90;1.20;;;17.20;99.90;;;;;;3059850;19;20022;-68
2022/07/26 05:14:24;;;;;;;7.22;1.40;;;17.00;99.90;;;;;;3060256;19;20002;-69
2022/07/26 05:15:26;;;;;;;4.80;1.17;;;17.10;99.90;;;;;;3059543;19;20093;-69
2022/07/26 05:16:30;;;;;;;5.80;1.13;;;17.00;99.90;;;;;;3058613;19;20018;-68
2022/07/26 05:17:36;;;;;;;9.23;1.50;;;17.10;99.90;;;;;;3059956;19;20006;-68
2022/07/26 05:18:41;;;;;;;4.35;1.10;;;16.90;99.90;;;;;;3061660;19;20018;-69
2022/07/26 05:19:42;;;;;;;7.43;1.45;;;17.10;99.90;;;;;;3060985;19;20042;-69
2022/07/26 05:20:46;;;;;;;6.05;1.42;;;17.10;99.90;;;;;;3060235;19;20018;-68
2022/07/26 05:21:47;;;;;;;4.10;1.10;;;17.10;99.90;;;;;;3059299;19;20085;-68
2022/07/26 05:22:51;;;;;;;5.13;1.20;;;17.00;99.90;;;;;;3059936;19;20022;-68
2022/07/26 05:23:55;;;;;;;3.90;1.13;;;17.10;99.90;;;;;;3059321;19;20021;-68
2022/07/26 05:24:56;;;;;;;6.25;1.50;;;17.10;99.90;;;;;;3060796;19;20023;-69
2022/07/26 05:26:00;;;;;;;4.03;1.08;;;17.00;99.90;;;;;;3059357;19;20035;-70
2022/07/26 05:27:01;;;;;;;5.82;1.30;;;17.00;99.90;;;;;;3057214;19;20054;-68
2022/07/26 05:28:07;;;;;;;2.70;1.00;;;17.10;99.90;;;;;;3059644;19;20038;-69
2022/07/26 05:29:08;;;;;;;5.22;1.50;;;17.00;99.90;;;;;;3059199;19;20014;-68